Time;durP1;ratioP1;P1;durP2;ratioP2;P2;SDS_P1;SDS_P2;PMS_P1;PMS_P2;Temp;Humidity;BMP_temperature;BMP_pressure;BME280_temperature;BME280_humidity;BME280_pressure;Samples;Min_cycle;Max_cycle;Signal;HPM_P1;HPM_P2
2023/10/01 00:01:42;;;;;;;;;;;14.60;99.90;;;;;;12509019;28;19975;-34
2023/10/01 00:07:49;;;;;;;;;;;14.60;99.90;;;;;;12554758;28;19929;-34
2023/10/01 00:13:51;;;;;;;;;;;14.70;99.90;;;;;;12558418;28;19929;-34
2023/10/01 00:19:53;;;;;;;;;;;14.70;99.90;;;;;;12555839;28;20273;-33
2023/10/01 00:25:59;;;;;;;;;;;14.70;99.90;;;;;;12562584;28;19929;-33
2023/10/01 00:32:06;;;;;;;;;;;14.70;99.90;;;;;;12560740;28;20295;-34
2023/10/01 00:38:10;;;;;;;;;;;14.70;99.90;;;;;;12564684;28;20636;-34
2023/10/01 00:44:18;;;;;;;;;;;14.60;99.90;;;;;;12547740;28;19924;-34
2023/10/01 00:50:30;;;;;;;;;;;14.60;99.90;;;;;;12564142;28;19979;-34
2023/10/01 00:56:44;;;;;;;;;;;14.50;99.90;;;;;;12568666;28;19974;-34
2023/10/01 01:03:08;;;;;;;;;;;14.60;99.90;;;;;;12569573;28;20375;-34
2023/10/01 01:09:20;;;;;;;;;;;14.50;99.90;;;;;;12576561;28;19982;-34
2023/10/01 01:15:27;;;;;;;;;;;14.50;99.90;;;;;;12564210;28;19936;-34
2023/10/01 01:21:29;;;;;;;;;;;14.50;99.90;;;;;;12553138;28;19933;-34
2023/10/01 01:27:31;;;;;;;;;;;14.60;99.90;;;;;;12545538;28;19929;-34
2023/10/01 01:33:40;;;;;;;;;;;14.70;99.90;;;;;;12551658;28;19982;-33
2023/10/01 01:39:48;;;;;;;;;;;14.60;99.90;;;;;;12554300;28;19925;-35
2023/10/01 01:46:01;;;;;;;;;;;14.50;99.90;;;;;;12551685;28;19928;-34
2023/10/01 01:52:03;;;;;;;;;;;14.50;99.90;;;;;;12544068;28;19935;-34
2023/10/01 01:58:09;;;;;;;;;;;14.50;99.90;;;;;;12512005;28;19928;-34
2023/10/01 02:04:14;;;;;;;;;;;14.50;99.90;;;;;;12520183;28;20380;-35
2023/10/01 02:10:17;;;;;;;;;;;14.50;99.90;;;;;;12539641;28;19994;-34
2023/10/01 02:16:34;;;;;;;;;;;14.50;99.90;;;;;;12554615;28;19968;-34
2023/10/01 02:22:36;;;;;;;;;;;14.40;99.90;;;;;;12554559;28;19977;-35
2023/10/01 02:28:37;;;;;;;;;;;14.40;99.90;;;;;;12546762;28;19932;-34
2023/10/01 02:34:40;;;;;;;;;;;14.30;99.90;;;;;;12531926;28;20506;-34
2023/10/01 02:40:48;;;;;;;;;;;14.40;99.90;;;;;;12550595;28;20039;-35
2023/10/01 02:46:53;;;;;;;;;;;14.40;99.90;;;;;;12561277;28;19932;-35
2023/10/01 02:52:55;;;;;;;;;;;14.40;99.90;;;;;;12559227;28;20319;-34
2023/10/01 02:58:57;;;;;;;;;;;14.30;99.90;;;;;;12529260;28;19929;-35
2023/10/01 03:05:07;;;;;;;;;;;14.30;99.90;;;;;;12560175;28;19957;-34
2023/10/01 03:11:11;;;;;;;;;;;14.30;99.90;;;;;;12559426;28;20007;-34
2023/10/01 03:17:18;;;;;;;;;;;14.30;99.90;;;;;;12566000;28;19932;-34
2023/10/01 03:23:26;;;;;;;;;;;14.40;99.90;;;;;;12565010;28;19928;-34
2023/10/01 03:29:41;;;;;;;;;;;14.40;99.90;;;;;;12570060;28;20376;-34
2023/10/01 03:35:57;;;;;;;;;;;14.50;99.90;;;;;;12577149;28;19951;-34
2023/10/01 03:42:17;;;;;;;;;;;14.40;99.90;;;;;;12571540;28;19931;-34
2023/10/01 03:48:42;;;;;;;;;;;14.50;99.90;;;;;;12578624;28;19929;-34
2023/10/01 04:01:15;;;;;;;;;;;14.50;99.90;;;;;;12552164;28;20395;-34
2023/10/01 04:07:18;;;;;;;;;;;14.50;99.90;;;;;;12574783;28;20375;-34
2023/10/01 04:13:21;;;;;;;;;;;14.50;99.90;;;;;;12561005;28;19929;-33
2023/10/01 04:19:31;;;;;;;;;;;14.50;99.90;;;;;;12565054;28;20384;-34
2023/10/01 04:25:43;;;;;;;;;;;14.40;99.90;;;;;;12591085;28;19924;-33
2023/10/01 04:31:55;;;;;;;;;;;14.40;99.90;;;;;;12605537;28;19977;-34
2023/10/01 04:38:00;;;;;;;;;;;14.40;99.90;;;;;;12604899;28;19928;-34
2023/10/01 04:44:13;;;;;;;;;;;14.40;99.90;;;;;;12607871;28;20469;-34
2023/10/01 04:50:17;;;;;;;;;;;14.40;99.90;;;;;;12615722;28;19939;-34
2023/10/01 04:56:26;;;;;;;;;;;14.40;99.90;;;;;;12619692;28;20299;-34
2023/10/01 05:02:43;;;;;;;;;;;14.40;99.90;;;;;;12620578;28;20054;-34
2023/10/01 05:09:14;;;;;;;;;;;14.50;99.90;;;;;;12616370;28;19935;-34
2023/10/01 05:15:35;;;;;;;;;;;14.50;99.90;;;;;;12623777;28;19924;-34
2023/10/01 05:21:47;;;;;;;;;;;14.50;99.90;;;;;;12615300;28;19928;-34
2023/10/01 05:28:16;;;;;;;;;;;14.50;99.90;;;;;;12619584;28;20018;-34
2023/10/01 05:34:46;;;;;;;;;;;14.50;99.90;;;;;;12626068;28;19925;-34
2023/10/01 05:41:03;;;;;;;;;;;14.50;99.90;;;;;;12625272;28;20399;-34
2023/10/01 05:47:18;;;;;;;;;;;14.50;99.90;;;;;;12613194;28;19928;-33
2023/10/01 05:53:30;;;;;;;;;;;14.50;99.90;;;;;;12620283;28;19979;-34
2023/10/01 05:59:37;;;;;;;;;;;14.50;99.90;;;;;;12604687;28;19936;-35
2023/10/01 06:05:57;;;;;;;;;;;14.50;99.90;;;;;;12605241;28;19935;-34
2023/10/01 06:12:17;;;;;;;;;;;14.50;99.90;;;;;;12618855;28;19924;-34
2023/10/01 06:18:27;;;;;;;;;;;14.60;99.90;;;;;;12618006;28;19924;-34
2023/10/01 06:24:31;;;;;;;;;;;14.60;99.90;;;;;;12614022;28;19935;-33
2023/10/01 06:30:33;;;;;;;;;;;14.50;99.90;;;;;;12581628;28;19931;-34
2023/10/01 06:36:36;;;;;;;;;;;14.60;99.90;;;;;;12587352;28;19928;-34
2023/10/01 06:42:40;;;;;;;;;;;14.70;99.90;;;;;;12591374;28;20613;-34
2023/10/01 06:48:42;;;;;;;;;;;14.70;99.90;;;;;;12581613;28;20308;-34
2023/10/01 06:54:46;;;;;;;;;;;14.90;99.90;;;;;;12597441;28;19928;-34
2023/10/01 07:00:48;;;;;;;;;;;15.00;99.90;;;;;;12593554;28;19960;-34
2023/10/01 07:06:53;;;;;;;;;;;14.90;99.90;;;;;;12595576;28;19928;-34
2023/10/01 07:12:58;;;;;;;;;;;15.10;99.90;;;;;;12597607;28;20030;-34
2023/10/01 07:19:11;;;;;;;;;;;15.20;99.90;;;;;;12610945;28;19928;-34
2023/10/01 07:32:01;;;;;;;;;;;15.20;99.90;;;;;;12603417;28;19935;-34
2023/10/01 07:38:10;;;;;;;;;;;15.20;99.90;;;;;;12627294;28;19924;-34
2023/10/01 07:44:36;;;;;;;;;;;15.30;99.90;;;;;;12623181;28;20329;-34
2023/10/01 07:51:03;;;;;;;;;;;15.30;99.90;;;;;;12622925;28;19943;-34
2023/10/01 07:57:13;;;;;;;;;;;15.30;99.90;;;;;;12630136;28;19924;-34
2023/10/01 08:03:32;;;;;;;;;;;15.40;99.90;;;;;;12624157;28;19976;-34
2023/10/01 08:09:54;;;;;;;;;;;15.40;99.90;;;;;;12623899;28;20016;-34
2023/10/01 08:16:13;;;;;;;;;;;15.50;99.90;;;;;;12629577;28;19932;-34
2023/10/01 08:22:23;;;;;;;;;;;15.50;99.90;;;;;;12628072;28;19931;-34
2023/10/01 08:28:29;;;;;;;;;;;15.60;99.90;;;;;;12607594;28;19982;-34
2023/10/01 08:35:01;;;;;;;;;;;15.70;99.90;;;;;;12586466;28;19977;-34
2023/10/01 08:40:59;;;;;;;;;;;15.90;99.90;;;;;;12610811;28;19950;-34
2023/10/01 08:47:21;;;;;;;;;;;16.00;99.90;;;;;;12603980;28;19938;-34
2023/10/01 08:53:25;;;;;;;;;;;16.40;99.90;;;;;;12606973;28;19975;-43
2023/10/01 08:59:27;;;;;;;;;;;16.90;99.90;;;;;;12606116;28;20359;-35
2023/10/01 09:05:29;;;;;;;;;;;17.10;99.90;;;;;;12604653;28;19963;-34
2023/10/01 09:11:41;;;;;;;;;;;17.20;99.90;;;;;;12609078;28;19974;-36
2023/10/01 09:17:56;;;;;;;;;;;17.20;99.90;;;;;;12594650;28;19994;-36
2023/10/01 09:24:12;;;;;;;;;;;17.10;99.90;;;;;;12604157;28;19943;-35
2023/10/01 09:30:26;;;;;;;;;;;17.00;99.90;;;;;;12601754;28;19924;-36
2023/10/01 09:36:37;;;;;;;;;;;16.90;99.90;;;;;;12594295;28;19958;-36
2023/10/01 09:42:55;;;;;;;;;;;17.00;99.90;;;;;;12605713;28;20548;-36
2023/10/01 09:49:02;;;;;;;;;;;17.10;99.90;;;;;;12604658;28;20377;-36
2023/10/01 09:55:24;;;;;;;;;;;17.10;99.90;;;;;;12610968;28;20010;-36
2023/10/01 10:01:34;;;;;;;;;;;17.30;99.90;;;;;;12594226;28;20110;-34
2023/10/01 10:07:40;;;;;;;;;;;17.30;99.90;;;;;;12614272;28;19928;-36
2023/10/01 10:13:57;;;;;;;;;;;17.30;99.90;;;;;;12604122;28;20014;-34
2023/10/01 10:20:16;;;;;;;;;;;17.50;99.90;;;;;;12609972;28;19924;-34
2023/10/01 10:27:09;;;;;;;;;;;17.70;99.90;;;;;;12616482;28;20027;-34
2023/10/01 10:33:30;;;;;;;;;;;17.80;99.90;;;;;;12615504;28;19935;-33
2023/10/01 10:40:02;;;;;;;;;;;17.90;99.90;;;;;;12620821;28;19924;-34
2023/10/01 10:46:21;;;;;;;;;;;18.10;99.90;;;;;;12614405;28;20368;-34
2023/10/01 10:52:42;;;;;;;;;;;18.50;99.90;;;;;;12628014;28;20036;-34
2023/10/01 10:58:44;;;;;;;;;;;18.60;99.90;;;;;;12620217;28;20329;-34
2023/10/01 11:04:49;;;;;;;;;;;18.40;99.90;;;;;;12620142;28;19940;-34
2023/10/01 11:11:10;;;;;;;;;;;18.40;99.90;;;;;;12623939;28;19982;-34
2023/10/01 11:17:34;;;;;;;;;;;18.60;99.90;;;;;;12627634;28;20486;-35
2023/10/01 11:23:42;;;;;;;;;;;19.20;99.90;;;;;;12627406;28;20336;-34
2023/10/01 11:29:58;;;;;;;;;;;19.50;99.90;;;;;;12590036;28;19924;-34
2023/10/01 11:36:09;;;;;;;;;;;19.70;99.90;;;;;;12603593;28;19928;-35
2023/10/01 11:42:20;;;;;;;;;;;20.00;99.90;;;;;;12610093;28;19935;-34
2023/10/01 11:48:56;;;;;;;;;;;20.30;99.90;;;;;;12622808;28;19932;-34
2023/10/01 11:55:16;;;;;;;;;;;20.50;99.90;;;;;;12612136;28;19924;-34
2023/10/01 12:01:20;;;;;;;;;;;20.40;99.90;;;;;;12614520;28;19988;-34
2023/10/01 12:07:33;;;;;;;;;;;20.20;99.90;;;;;;12594544;28;19980;-34
2023/10/01 12:13:35;;;;;;;;;;;20.40;99.90;;;;;;12603521;28;20022;-35
2023/10/01 12:19:44;;;;;;;;;;;20.60;99.90;;;;;;12620689;28;20387;-35
2023/10/01 12:26:31;;;;;;;;;;;20.90;99.90;;;;;;12629324;28;19931;-34
2023/10/01 12:32:41;;;;;;;;;;;21.30;99.90;;;;;;12625318;28;19955;-35
2023/10/01 12:39:38;;;;;;;;;;;21.40;99.90;;;;;;12602497;28;20018;-34
2023/10/01 12:45:31;;;;;;;;;;;21.60;99.90;;;;;;12613269;28;19933;-35
2023/10/01 12:51:41;;;;;;;;;;;21.90;99.90;;;;;;12608275;28;20073;-35
2023/10/01 12:57:58;;;;;;;;;;;22.00;99.90;;;;;;12621145;28;19925;-35
2023/10/01 13:04:25;;;;;;;;;;;22.00;99.90;;;;;;12586756;28;20015;-35
2023/10/01 13:10:41;;;;;;;;;;;22.10;99.90;;;;;;12574523;28;19931;-35
2023/10/01 13:17:02;;;;;;;;;;;21.80;99.90;;;;;;12560571;28;19925;-34
2023/10/01 13:23:24;;;;;;;;;;;21.70;99.90;;;;;;12559446;28;19972;-35
2023/10/01 13:29:48;;;;;;;;;;;21.70;99.90;;;;;;12572660;28;19987;-35
2023/10/01 13:36:23;;;;;;;;;;;21.80;99.90;;;;;;12566967;28;19924;-35
2023/10/01 14:08:52;;;;;;;;;;;21.50;99.90;;;;;;12566684;28;19976;-35
2023/10/01 14:15:20;;;;;;;;;;;21.30;99.90;;;;;;12571854;28;19960;-35
2023/10/01 14:21:34;;;;;;;;;;;21.20;99.90;;;;;;12566014;28;19932;-34
2023/10/01 14:27:51;;;;;;;;;;;21.10;99.90;;;;;;12565882;28;19925;-34
2023/10/01 14:34:08;;;;;;;;;;;21.10;99.90;;;;;;12573393;28;19931;-34
2023/10/01 14:40:34;;;;;;;;;;;21.00;99.90;;;;;;12565471;28;20842;-34
2023/10/01 14:46:52;;;;;;;;;;;20.90;99.90;;;;;;12557402;28;19924;-34
2023/10/01 14:53:01;;;;;;;;;;;20.80;99.90;;;;;;12562770;28;20022;-34
2023/10/01 14:59:14;;;;;;;;;;;20.70;99.90;;;;;;12563182;28;19929;-35
2023/10/01 15:05:32;;;;;;;;;;;20.70;99.90;;;;;;12561094;28;19929;-34
2023/10/01 15:11:48;;;;;;;;;;;20.60;99.90;;;;;;12564104;28;19935;-35
2023/10/01 15:18:04;;;;;;;;;;;20.50;99.90;;;;;;12569180;28;19928;-35
2023/10/01 15:24:22;;;;;;;;;;;20.50;99.90;;;;;;12564073;28;20458;-35
2023/10/01 15:30:54;;;;;;;;;;;20.40;99.90;;;;;;12550960;28;19925;-35
2023/10/01 15:37:16;;;;;;;;;;;20.20;99.90;;;;;;12569058;28;19935;-35
2023/10/01 15:43:29;;;;;;;;;;;20.20;99.90;;;;;;12573780;28;19928;-35
2023/10/01 15:49:43;;;;;;;;;;;20.10;99.90;;;;;;12576727;28;19983;-35
2023/10/01 15:56:00;;;;;;;;;;;20.10;99.90;;;;;;12562352;28;19939;-35
2023/10/01 16:02:18;;;;;;;;;;;20.00;99.90;;;;;;12563961;28;19935;-35
2023/10/01 16:08:35;;;;;;;;;;;19.90;99.90;;;;;;12587256;28;19931;-35
2023/10/01 16:14:56;;;;;;;;;;;19.90;99.90;;;;;;12579403;28;19936;-35
2023/10/01 16:21:20;;;;;;;;;;;19.80;99.90;;;;;;12557607;28;19990;-35
2023/10/01 16:27:32;;;;;;;;;;;19.70;99.90;;;;;;12559218;28;20037;-35
2023/10/01 16:33:41;;;;;;;;;;;19.60;99.90;;;;;;12556644;28;19968;-35
2023/10/01 16:39:43;;;;;;;;;;;19.50;99.90;;;;;;12549708;28;20248;-35
2023/10/01 16:45:45;;;;;;;;;;;19.50;99.90;;;;;;12554307;28;19968;-35
2023/10/01 16:51:49;;;;;;;;;;;19.40;99.90;;;;;;12533711;28;19928;-35
2023/10/01 16:57:57;;;;;;;;;;;19.30;99.90;;;;;;12546047;28;20359;-35
2023/10/01 17:04:41;;;;;;;;;;;19.30;99.90;;;;;;12559288;28;20023;-35
2023/10/01 17:10:54;;;;;;;;;;;19.20;99.90;;;;;;12564464;28;19971;-34
2023/10/01 17:17:31;;;;;;;;;;;19.10;99.90;;;;;;12553335;28;19924;-35
2023/10/01 17:23:56;;;;;;;;;;;19.10;99.90;;;;;;12562991;28;19932;-35
2023/10/01 17:30:18;;;;;;;;;;;19.10;99.90;;;;;;12558036;28;19925;-35
2023/10/01 17:37:07;;;;;;;;;;;19.10;99.90;;;;;;12552562;28;20447;-35
2023/10/01 17:43:40;;;;;;;;;;;19.00;99.90;;;;;;12560093;28;20344;-34
2023/10/01 17:50:22;;;;;;;;;;;18.90;99.90;;;;;;12565812;28;19986;-34
2023/10/01 17:56:43;;;;;;;;;;;18.90;99.90;;;;;;12558953;28;20346;-35
2023/10/01 18:02:45;;;;;;;;;;;18.80;99.90;;;;;;12534493;28;20002;-35
2023/10/01 18:08:51;;;;;;;;;;;18.70;99.90;;;;;;12538793;28;19973;-35
2023/10/01 18:15:03;;;;;;;;;;;18.70;99.90;;;;;;12543421;28;20028;-35
2023/10/01 18:21:11;;;;;;;;;;;18.60;99.90;;;;;;12537688;28;19928;-35
2023/10/01 18:27:13;;;;;;;;;;;18.60;99.90;;;;;;12532240;28;20893;-35
2023/10/01 18:33:16;;;;;;;;;;;18.50;99.90;;;;;;12542134;28;19984;-35
2023/10/01 18:39:27;;;;;;;;;;;18.50;99.90;;;;;;12538870;28;19940;-34
2023/10/01 18:45:30;;;;;;;;;;;18.40;99.90;;;;;;12535085;28;20014;-34
2023/10/01 18:51:33;;;;;;;;;;;18.50;99.90;;;;;;12544334;28;20350;-34
2023/10/01 18:57:34;;;;;;;;;;;18.50;99.90;;;;;;12548526;28;19928;-34
2023/10/01 19:03:36;;;;;;;;;;;18.50;99.90;;;;;;12522080;28;19989;-34
2023/10/01 19:09:38;;;;;;;;;;;18.60;99.90;;;;;;12540279;28;19928;-34
2023/10/01 19:15:40;;;;;;;;;;;18.50;99.90;;;;;;12542403;28;19967;-34
2023/10/01 19:21:42;;;;;;;;;;;18.50;99.90;;;;;;12549651;28;19931;-34
2023/10/01 19:27:43;;;;;;;;;;;18.50;99.90;;;;;;12524776;28;20006;-34
2023/10/01 19:33:51;;;;;;;;;;;18.50;99.90;;;;;;12541854;28;20377;-34
2023/10/01 19:39:53;;;;;;;;;;;18.50;99.90;;;;;;12546255;28;20028;-34
2023/10/01 19:45:57;;;;;;;;;;;18.40;99.90;;;;;;12533505;28;19964;-34
2023/10/01 19:52:00;;;;;;;;;;;18.40;99.90;;;;;;12541750;28;19935;-34
2023/10/01 19:58:02;;;;;;;;;;;18.30;99.90;;;;;;12542525;28;19998;-34
2023/10/01 20:04:06;;;;;;;;;;;18.30;99.90;;;;;;12544219;28;20509;-34
2023/10/01 20:10:11;;;;;;;;;;;18.20;99.90;;;;;;12547715;28;20357;-34
2023/10/01 20:16:13;;;;;;;;;;;18.20;99.90;;;;;;12539140;28;20048;-34
2023/10/01 20:22:19;;;;;;;;;;;18.20;99.90;;;;;;12535847;28;20373;-34
2023/10/01 20:28:27;;;;;;;;;;;18.30;99.90;;;;;;12554961;28;19941;-34
2023/10/01 20:34:30;;;;;;;;;;;18.30;99.90;;;;;;12541857;28;20311;-34
2023/10/01 20:40:46;;;;;;;;;;;18.30;99.90;;;;;;12547578;28;20300;-33
2023/10/01 20:46:49;;;;;;;;;;;18.30;99.90;;;;;;12546968;28;20443;-34
2023/10/01 20:52:51;;;;;;;;;;;18.30;99.90;;;;;;12549373;28;20268;-34
2023/10/01 20:58:53;;;;;;;;;;;18.30;99.90;;;;;;12541754;28;19928;-34
2023/10/01 21:04:55;;;;;;;;;;;18.40;99.90;;;;;;12537719;28;20396;-34
2023/10/01 21:11:02;;;;;;;;;;;18.40;99.90;;;;;;12528573;28;19924;-34
2023/10/01 21:17:05;;;;;;;;;;;18.40;99.90;;;;;;12543151;28;19932;-34
2023/10/01 21:23:13;;;;;;;;;;;18.40;99.90;;;;;;12518447;28;20041;-34
2023/10/01 21:29:18;;;;;;;;;;;18.30;99.90;;;;;;12544283;28;20022;-34
2023/10/01 21:35:21;;;;;;;;;;;18.30;99.90;;;;;;12532503;28;19936;-34
2023/10/01 21:41:23;;;;;;;;;;;18.20;99.90;;;;;;12545787;28;20321;-34
2023/10/01 21:47:25;;;;;;;;;;;18.20;99.90;;;;;;12548819;28;20371;-34
2023/10/01 21:53:39;;;;;;;;;;;18.20;99.90;;;;;;12549539;28;20319;-34
2023/10/01 21:59:43;;;;;;;;;;;18.10;99.90;;;;;;12531034;28;19929;-34
2023/10/01 22:05:47;;;;;;;;;;;18.00;99.90;;;;;;12528926;28;20487;-35
2023/10/01 22:11:54;;;;;;;;;;;18.00;99.90;;;;;;12543435;28;21719;-35
2023/10/01 22:17:56;;;;;;;;;;;17.90;99.90;;;;;;12527576;28;19998;-35
2023/10/01 22:24:16;;;;;;;;;;;18.00;99.90;;;;;;12523856;28;19929;-35
2023/10/01 22:30:18;;;;;;;;;;;17.90;99.90;;;;;;12539485;28;19975;-35
2023/10/01 22:36:32;;;;;;;;;;;17.90;99.90;;;;;;12539023;28;19982;-35
2023/10/01 22:42:36;;;;;;;;;;;17.80;99.90;;;;;;12533990;28;20738;-35
2023/10/01 22:48:44;;;;;;;;;;;17.70;99.90;;;;;;12535386;28;19978;-35
2023/10/01 22:54:50;;;;;;;;;;;17.70;99.90;;;;;;12545665;28;19925;-35
2023/10/01 23:00:56;;;;;;;;;;;17.70;99.90;;;;;;12547578;28;19931;-35
2023/10/01 23:06:57;;;;;;;;;;;17.70;99.90;;;;;;12552424;28;19998;-34
2023/10/01 23:13:10;;;;;;;;;;;17.70;99.90;;;;;;12553333;28;20529;-35
2023/10/01 23:19:32;;;;;;;;;;;17.70;99.90;;;;;;12548921;28;20350;-35
2023/10/01 23:25:34;;;;;;;;;;;17.70;99.90;;;;;;12534792;28;20308;-34
2023/10/01 23:31:48;;;;;;;;;;;17.70;99.90;;;;;;12540056;28;20376;-34
2023/10/01 23:37:51;;;;;;;;;;;17.80;99.90;;;;;;12544877;28;20393;-34
2023/10/01 23:43:54;;;;;;;;;;;17.30;99.90;;;;;;12537239;28;20354;-34
2023/10/01 23:56:20;;;;;;;;;;;17.40;99.90;;;;;;12541728;28;20023;-34
